createdAt,value
2019-05-21T00:00:44.797Z,99.90
2019-05-21T00:03:15.670Z,99.90
2019-05-21T00:05:46.280Z,99.90
2019-05-21T00:08:17.046Z,99.90
2019-05-21T00:10:47.842Z,99.90
2019-05-21T00:13:19.424Z,99.90
2019-05-21T00:15:50.129Z,99.90
2019-05-21T00:18:20.966Z,99.90
2019-05-21T00:20:52.210Z,99.90
2019-05-21T00:23:23.028Z,99.90
2019-05-21T00:25:53.906Z,99.90
2019-05-21T00:28:40.676Z,99.90
2019-05-21T00:31:46.906Z,99.90
2019-05-21T00:34:54.258Z,99.90
2019-05-21T00:38:00.589Z,99.90
2019-05-21T00:41:07.270Z,99.90
2019-05-21T00:43:53.838Z,99.90
2019-05-21T00:46:24.830Z,99.90
2019-05-21T00:48:55.386Z,99.90
2019-05-21T00:51:26.637Z,99.90
2019-05-21T00:53:58.280Z,99.90
2019-05-21T00:56:28.809Z,99.90
2019-05-21T00:58:59.362Z,99.90
2019-05-21T01:01:29.916Z,99.90
2019-05-21T01:04:01.022Z,99.90
2019-05-21T01:06:31.861Z,99.90
2019-05-21T01:09:03.206Z,99.90
2019-05-21T01:11:33.853Z,99.90
2019-05-21T01:14:04.581Z,99.90
2019-05-21T01:16:35.277Z,99.90
2019-05-21T01:19:06.009Z,99.90
2019-05-21T01:21:36.606Z,99.90
2019-05-21T01:24:07.730Z,99.90
2019-05-21T01:26:38.547Z,99.90
2019-05-21T01:29:09.355Z,99.90
2019-05-21T01:31:39.911Z,99.90
2019-05-21T01:34:11.532Z,99.90
2019-05-21T01:36:42.431Z,99.90
2019-05-21T01:39:13.038Z,99.90
2019-05-21T01:41:43.617Z,99.90
2019-05-21T01:44:14.409Z,99.90
2019-05-21T01:46:46.135Z,99.90
2019-05-21T01:49:16.718Z,99.90
2019-05-21T01:51:48.430Z,99.90
2019-05-21T01:54:19.246Z,99.90
2019-05-21T01:56:50.049Z,99.90
2019-05-21T01:59:20.918Z,99.90
2019-05-21T02:01:51.494Z,99.90
2019-05-21T02:04:22.276Z,99.90
2019-05-21T02:06:53.029Z,99.90
2019-05-21T02:09:23.724Z,99.90
2019-05-21T02:11:54.470Z,99.90
2019-05-21T02:14:25.301Z,99.90
2019-05-21T02:16:56.134Z,99.90
2019-05-21T02:19:26.990Z,99.90
2019-05-21T02:21:57.805Z,99.90
2019-05-21T02:24:28.431Z,99.90
2019-05-21T02:26:59.221Z,99.90
2019-05-21T02:29:31.020Z,99.90
2019-05-21T02:32:01.777Z,99.90
2019-05-21T02:34:32.682Z,99.90
2019-05-21T02:37:06.142Z,99.90
2019-05-21T02:39:35.860Z,99.90
2019-05-21T02:42:06.734Z,99.90
2019-05-21T02:44:38.397Z,99.90
2019-05-21T02:47:09.054Z,99.90
2019-05-21T02:49:39.572Z,99.90
2019-05-21T02:52:10.122Z,99.90
2019-05-21T02:54:42.039Z,99.90
2019-05-21T02:57:12.706Z,99.90
2019-05-21T02:59:44.794Z,99.90
2019-05-21T03:02:36.242Z,99.90
2019-05-21T03:05:07.788Z,99.90
2019-05-21T03:07:38.251Z,99.90
2019-05-21T03:10:09.183Z,99.90
2019-05-21T03:12:40.077Z,99.90
2019-05-21T03:15:11.091Z,99.90
2019-05-21T03:17:41.807Z,99.90
2019-05-21T03:20:13.732Z,99.90
2019-05-21T03:22:44.313Z,99.90
2019-05-21T03:25:15.511Z,99.90
2019-05-21T03:27:46.063Z,99.90
2019-05-21T03:30:17.305Z,99.90
2019-05-21T03:32:49.213Z,99.90
2019-05-21T03:35:20.152Z,99.90
2019-05-21T03:37:50.711Z,99.90
2019-05-21T03:40:21.432Z,99.90
2019-05-21T03:42:52.244Z,99.90
2019-05-21T03:45:23.087Z,99.90
2019-05-21T03:47:53.910Z,99.90
2019-05-21T03:50:25.503Z,99.90
2019-05-21T03:52:56.515Z,99.90
2019-05-21T03:55:27.351Z,99.90
2019-05-21T03:57:58.182Z,99.90
2019-05-21T04:00:30.189Z,99.90
2019-05-21T04:03:01.092Z,99.90
2019-05-21T04:05:31.810Z,99.90
2019-05-21T04:08:03.683Z,99.90
2019-05-21T04:10:34.308Z,99.90
2019-05-21T04:13:11.124Z,99.90
2019-05-21T04:15:49.392Z,99.90
2019-05-21T04:18:24.749Z,99.90
2019-05-21T04:20:55.747Z,99.90
2019-05-21T04:23:28.083Z,99.90
2019-05-21T04:25:58.953Z,99.90
2019-05-21T04:28:29.738Z,99.90
2019-05-21T04:31:00.590Z,99.90
2019-05-21T04:33:31.413Z,99.90
2019-05-21T04:36:02.285Z,99.90
2019-05-21T04:38:33.231Z,99.90
2019-05-21T04:41:03.707Z,99.90
2019-05-21T04:43:34.455Z,99.90
2019-05-21T04:46:05.247Z,99.90
2019-05-21T04:48:37.135Z,99.90
2019-05-21T04:51:07.922Z,99.90
2019-05-21T04:53:38.727Z,99.90
2019-05-21T04:56:09.360Z,99.90
2019-05-21T04:58:40.082Z,99.90
2019-05-21T05:01:10.737Z,99.90
2019-05-21T05:03:41.238Z,99.90
2019-05-21T05:06:12.023Z,99.90
2019-05-21T05:08:42.601Z,99.90
2019-05-21T05:11:13.165Z,99.90
2019-05-21T05:13:43.879Z,99.90
2019-05-21T05:16:14.621Z,99.90
2019-05-21T05:18:45.453Z,99.90
2019-05-21T05:21:16.250Z,99.90
2019-05-21T05:23:46.929Z,99.90
2019-05-21T05:26:17.783Z,99.90
2019-05-21T05:28:48.604Z,99.90
2019-05-21T05:31:19.243Z,99.90
2019-05-21T05:33:49.861Z,99.90
2019-05-21T05:36:20.836Z,99.90
2019-05-21T05:38:51.641Z,99.90
2019-05-21T05:41:22.533Z,99.90
2019-05-21T05:43:54.046Z,99.90
2019-05-21T05:46:24.892Z,99.90
2019-05-21T05:49:02.030Z,99.90
2019-05-21T05:51:33.063Z,99.90
2019-05-21T05:54:03.490Z,99.90
2019-05-21T05:56:34.261Z,99.90
2019-05-21T05:59:05.140Z,99.90
2019-05-21T06:01:35.710Z,99.90
2019-05-21T06:04:06.790Z,99.90
2019-05-21T06:06:37.464Z,99.90
2019-05-21T06:09:08.148Z,99.90
2019-05-21T06:11:38.773Z,99.90
2019-05-21T06:14:09.366Z,99.90
2019-05-21T06:16:40.356Z,99.90
2019-05-21T06:19:10.964Z,99.90
2019-05-21T06:21:41.802Z,99.90
2019-05-21T06:24:13.633Z,99.90
2019-05-21T06:26:44.226Z,99.90
2019-05-21T06:29:15.038Z,99.90
2019-05-21T06:31:46.002Z,99.90
2019-05-21T06:34:16.876Z,99.70
2019-05-21T06:36:47.485Z,99.50
2019-05-21T06:39:18.530Z,99.40
2019-05-21T06:41:49.334Z,99.10
2019-05-21T06:44:20.227Z,99.10
2019-05-21T06:46:50.938Z,98.80
2019-05-21T06:49:22.792Z,98.70
2019-05-21T06:51:53.653Z,98.60
2019-05-21T06:54:24.420Z,98.20
2019-05-21T06:56:55.290Z,98.10
2019-05-21T06:59:25.809Z,97.90
2019-05-21T07:01:56.550Z,97.70
2019-05-21T07:04:27.543Z,97.60
2019-05-21T07:06:58.132Z,96.80
2019-05-21T07:09:28.986Z,96.70
2019-05-21T07:11:59.744Z,96.20
2019-05-21T07:14:30.521Z,95.80
2019-05-21T07:17:01.375Z,95.70
2019-05-21T07:19:32.198Z,95.70
2019-05-21T07:22:12.069Z,95.40
2019-05-21T07:24:35.198Z,94.90
2019-05-21T07:27:05.970Z,95.10
2019-05-21T07:29:36.545Z,95.10
2019-05-21T07:32:07.300Z,94.40
2019-05-21T07:34:37.930Z,94.00
2019-05-21T07:37:08.452Z,93.60
2019-05-21T07:39:39.214Z,92.80
2019-05-21T07:42:10.134Z,92.50
2019-05-21T07:44:40.709Z,92.80
2019-05-21T07:47:11.217Z,92.40
2019-05-21T07:49:41.753Z,92.30
2019-05-21T07:52:12.500Z,92.00
2019-05-21T07:54:43.087Z,91.60
2019-05-21T07:57:13.835Z,91.20
2019-05-21T07:59:44.699Z,90.60
2019-05-21T08:02:15.640Z,90.40
2019-05-21T08:04:46.366Z,90.20
2019-05-21T08:07:17.187Z,90.00
2019-05-21T08:09:49.007Z,89.70
2019-05-21T08:12:37.526Z,89.20
2019-05-21T08:14:52.490Z,89.60
2019-05-21T08:17:23.295Z,89.00
2019-05-21T08:19:53.958Z,88.80
2019-05-21T08:22:24.689Z,88.70
2019-05-21T08:24:55.646Z,87.60
2019-05-21T08:27:26.118Z,85.90
2019-05-21T08:29:57.178Z,85.60
2019-05-21T08:32:28.077Z,86.00
2019-05-21T08:34:58.880Z,84.80
2019-05-21T08:37:29.727Z,83.60
2019-05-21T08:40:00.662Z,82.20
2019-05-21T08:42:31.234Z,82.10
2019-05-21T08:45:02.849Z,81.20
2019-05-21T08:47:34.059Z,80.70
2019-05-21T08:50:05.554Z,79.50
2019-05-21T08:52:36.025Z,79.00
2019-05-21T08:55:06.978Z,77.40
2019-05-21T08:57:37.663Z,75.90
2019-05-21T09:00:10.156Z,74.80
2019-05-21T09:02:41.041Z,75.20
2019-05-21T09:05:12.826Z,75.50
2019-05-21T09:07:43.942Z,73.90
2019-05-21T09:10:16.548Z,73.50
2019-05-21T09:12:47.110Z,71.40
2019-05-21T09:15:19.655Z,70.60
2019-05-21T09:17:50.462Z,68.70
2019-05-21T09:20:21.557Z,67.80
2019-05-21T09:22:52.514Z,66.00
2019-05-21T09:25:23.305Z,65.50
2019-05-21T09:27:53.889Z,66.40
2019-05-21T09:30:24.897Z,64.80
2019-05-21T09:32:55.789Z,65.90
2019-05-21T09:35:26.654Z,65.00
2019-05-21T09:37:57.469Z,63.40
2019-05-21T09:40:28.703Z,63.60
2019-05-21T09:42:59.684Z,62.80
2019-05-21T09:45:30.615Z,62.60
2019-05-21T09:48:01.564Z,62.10
2019-05-21T09:50:32.334Z,60.60
2019-05-21T09:53:03.110Z,61.30
2019-05-21T09:55:33.946Z,63.10
2019-05-21T09:58:33.125Z,61.30
2019-05-21T10:01:21.370Z,60.70
2019-05-21T10:03:54.952Z,61.30
2019-05-21T10:06:25.837Z,60.20
2019-05-21T10:08:56.656Z,59.30
2019-05-21T10:11:27.337Z,59.10
2019-05-21T10:13:59.766Z,57.80
2019-05-21T10:16:30.213Z,57.20
2019-05-21T10:19:00.962Z,56.20
2019-05-21T10:21:31.772Z,55.00
2019-05-21T10:24:02.403Z,56.10
2019-05-21T10:26:32.929Z,55.20
2019-05-21T10:29:03.807Z,56.00
2019-05-21T10:31:34.510Z,55.00
2019-05-21T10:34:06.010Z,54.20
2019-05-21T10:36:36.583Z,52.90
2019-05-21T10:39:08.057Z,53.00
2019-05-21T10:41:38.549Z,53.40
2019-05-21T10:44:09.265Z,52.30
2019-05-21T10:46:40.151Z,51.80
2019-05-21T10:49:11.010Z,51.00
2019-05-21T10:51:41.601Z,51.70
2019-05-21T10:54:12.390Z,51.30
2019-05-21T10:56:47.787Z,51.00
2019-05-21T10:59:15.660Z,52.10
2019-05-21T11:02:01.811Z,51.40
2019-05-21T11:04:54.195Z,50.70
2019-05-21T11:07:24.939Z,52.20
2019-05-21T11:09:55.833Z,52.00
2019-05-21T11:12:26.858Z,51.00
2019-05-21T11:14:57.783Z,51.60
2019-05-21T11:17:28.612Z,50.20
2019-05-21T11:19:59.434Z,50.50
2019-05-21T11:22:30.301Z,50.40
2019-05-21T11:25:01.022Z,49.90
2019-05-21T11:27:31.942Z,50.50
2019-05-21T11:30:03.008Z,48.80
2019-05-21T11:32:35.849Z,49.40
2019-05-21T11:35:07.273Z,49.50
2019-05-21T11:37:37.847Z,49.80
2019-05-21T11:40:09.418Z,49.30
2019-05-21T11:42:40.193Z,49.00
2019-05-21T11:45:11.982Z,49.60
2019-05-21T11:47:42.648Z,49.50
2019-05-21T11:50:13.673Z,48.60
2019-05-21T11:52:44.429Z,48.80
2019-05-21T11:55:15.845Z,48.90
2019-05-21T11:57:46.366Z,49.70
2019-05-21T12:00:21.515Z,50.40
2019-05-21T12:02:51.251Z,50.70
2019-05-21T12:05:23.153Z,50.20
2019-05-21T12:07:53.779Z,49.90
2019-05-21T12:10:24.290Z,50.50
2019-05-21T12:12:55.083Z,49.90
2019-05-21T12:15:25.805Z,50.50
2019-05-21T12:17:56.695Z,50.00
2019-05-21T12:20:36.767Z,51.00
2019-05-21T12:22:59.929Z,50.80
2019-05-21T12:25:30.949Z,51.30
2019-05-21T12:28:01.677Z,51.30
2019-05-21T12:30:32.398Z,51.50
2019-05-21T12:33:03.269Z,52.10
2019-05-21T12:35:34.077Z,53.00
2019-05-21T12:38:05.275Z,53.60
2019-05-21T12:40:35.826Z,53.40
2019-05-21T12:43:08.514Z,53.50
2019-05-21T12:45:38.760Z,54.00
2019-05-21T12:48:09.566Z,54.10
2019-05-21T12:50:40.383Z,53.40
2019-05-21T12:53:10.958Z,54.40
2019-05-21T12:55:41.789Z,54.30
2019-05-21T12:58:14.364Z,54.40
2019-05-21T13:00:45.113Z,54.10
2019-05-21T13:03:15.826Z,53.60
2019-05-21T13:05:46.602Z,55.00
2019-05-21T13:08:17.209Z,53.70
2019-05-21T13:10:48.040Z,53.80
2019-05-21T13:13:18.615Z,53.70
2019-05-21T13:15:49.130Z,53.30
2019-05-21T13:18:19.961Z,53.30
2019-05-21T13:20:50.563Z,53.30
2019-05-21T13:23:21.205Z,53.80
2019-05-21T13:25:52.062Z,53.90
2019-05-21T13:28:23.185Z,54.30
2019-05-21T13:30:53.685Z,53.50
2019-05-21T13:33:24.440Z,53.90
2019-05-21T13:35:56.227Z,54.10
2019-05-21T13:38:27.288Z,53.80
2019-05-21T13:40:58.692Z,53.90
2019-05-21T13:43:29.329Z,54.20
2019-05-21T13:46:00.314Z,54.40
2019-05-21T13:48:30.927Z,54.50
2019-05-21T13:51:01.546Z,54.90
2019-05-21T13:53:32.483Z,55.00
2019-05-21T13:56:03.357Z,55.20
2019-05-21T13:58:33.977Z,55.40
2019-05-21T14:01:05.859Z,56.00
2019-05-21T14:03:36.809Z,56.20
2019-05-21T14:06:07.597Z,56.30
2019-05-21T14:08:38.527Z,56.30
2019-05-21T14:11:09.592Z,56.30
2019-05-21T14:13:40.190Z,56.60
2019-05-21T14:16:11.027Z,56.20
2019-05-21T14:18:41.793Z,56.80
2019-05-21T14:21:12.756Z,57.10
2019-05-21T14:23:43.354Z,57.40
2019-05-21T14:26:14.322Z,57.30
2019-05-21T14:28:45.134Z,57.10
2019-05-21T14:31:16.050Z,56.70
2019-05-21T14:33:47.027Z,57.40
2019-05-21T14:36:17.457Z,57.60
2019-05-21T14:38:48.169Z,57.60
2019-05-21T14:41:18.826Z,58.30
2019-05-21T14:43:49.849Z,58.50
2019-05-21T14:46:20.516Z,58.40
2019-05-21T14:48:50.987Z,58.40
2019-05-21T14:51:21.769Z,58.50
2019-05-21T14:53:53.954Z,58.60
2019-05-21T14:56:24.528Z,58.30
2019-05-21T14:58:55.186Z,59.00
2019-05-21T15:01:26.049Z,58.50
2019-05-21T15:03:56.793Z,58.60
2019-05-21T15:06:27.694Z,59.20
2019-05-21T15:08:59.258Z,59.00
2019-05-21T15:11:29.987Z,59.20
2019-05-21T15:14:01.042Z,59.10
2019-05-21T15:16:32.018Z,59.60
2019-05-21T15:19:03.665Z,59.60
2019-05-21T15:21:39.375Z,59.80
2019-05-21T15:24:10.390Z,60.20
2019-05-21T15:26:41.281Z,60.40
2019-05-21T15:29:12.037Z,60.50
2019-05-21T15:31:42.605Z,61.00
2019-05-21T15:34:13.407Z,60.50
2019-05-21T15:36:44.263Z,60.60
2019-05-21T15:39:15.032Z,60.80
2019-05-21T15:41:45.637Z,60.80
2019-05-21T15:44:16.413Z,61.10
2019-05-21T15:46:50.717Z,61.10
2019-05-21T15:49:34.967Z,61.40
2019-05-21T15:51:53.627Z,60.90
2019-05-21T15:54:24.353Z,61.40
2019-05-21T15:56:54.977Z,61.60
2019-05-21T15:59:25.722Z,61.80
2019-05-21T16:01:56.568Z,62.10
2019-05-21T16:04:27.391Z,62.50
2019-05-21T16:06:58.154Z,62.50
2019-05-21T16:09:29.145Z,62.90
2019-05-21T16:11:59.728Z,62.80
2019-05-21T16:14:30.258Z,63.10
2019-05-21T16:17:00.854Z,63.00
2019-05-21T16:19:31.635Z,63.00
2019-05-21T16:22:02.393Z,63.30
2019-05-21T16:24:33.222Z,63.40
2019-05-21T16:27:03.801Z,63.10
2019-05-21T16:29:34.341Z,63.30
2019-05-21T16:32:05.251Z,63.50
2019-05-21T16:34:35.986Z,63.60
2019-05-21T16:37:07.045Z,63.30
2019-05-21T16:39:37.873Z,63.00
2019-05-21T16:42:08.746Z,63.10
2019-05-21T16:44:39.748Z,63.10
2019-05-21T16:47:10.286Z,63.20
2019-05-21T16:49:41.234Z,63.30
2019-05-21T16:52:12.161Z,63.50
2019-05-21T16:54:42.943Z,63.50
2019-05-21T16:57:13.481Z,63.30
2019-05-21T16:59:44.296Z,63.70
2019-05-21T17:02:15.111Z,63.70
2019-05-21T17:04:45.773Z,63.30
2019-05-21T17:07:16.534Z,63.80
2019-05-21T17:09:47.435Z,64.00
2019-05-21T17:12:18.089Z,64.10
2019-05-21T17:14:50.044Z,64.40
2019-05-21T17:17:21.076Z,64.70
2019-05-21T17:19:51.698Z,64.90
2019-05-21T17:22:22.349Z,64.90
2019-05-21T17:24:53.256Z,64.70
2019-05-21T17:27:23.930Z,65.20
2019-05-21T17:29:54.622Z,65.60
2019-05-21T17:32:25.477Z,65.60
2019-05-21T17:34:56.081Z,65.80
2019-05-21T17:37:26.862Z,65.60
2019-05-21T17:39:57.809Z,66.00
2019-05-21T17:42:28.421Z,66.00
2019-05-21T17:44:59.431Z,66.20
2019-05-21T17:47:30.469Z,66.60
2019-05-21T17:50:01.349Z,66.60
2019-05-21T17:52:32.260Z,66.60
2019-05-21T17:55:02.879Z,67.10
2019-05-21T17:57:34.760Z,67.20
2019-05-21T18:00:07.754Z,67.20
2019-05-21T18:02:39.497Z,68.60
2019-05-21T18:05:11.269Z,68.20
2019-05-21T18:07:42.706Z,68.10
2019-05-21T18:10:16.054Z,67.80
2019-05-21T18:12:47.369Z,68.20
2019-05-21T18:15:18.489Z,68.70
2019-05-21T18:17:49.727Z,68.70
2019-05-21T18:20:21.471Z,68.90
2019-05-21T18:22:56.395Z,69.30
2019-05-21T18:25:27.425Z,69.50
2019-05-21T18:27:57.842Z,69.40
2019-05-21T18:30:28.946Z,69.70
2019-05-21T18:33:00.722Z,70.10
2019-05-21T18:35:31.455Z,70.20
2019-05-21T18:38:02.337Z,70.40
2019-05-21T18:40:33.172Z,70.90
2019-05-21T18:43:04.032Z,71.20
2019-05-21T18:45:34.467Z,71.30
2019-05-21T18:48:05.355Z,71.60
2019-05-21T18:50:37.201Z,71.70
2019-05-21T18:53:09.386Z,71.40
2019-05-21T18:55:40.306Z,72.00
2019-05-21T18:58:11.198Z,72.20
2019-05-21T19:00:41.861Z,72.20
2019-05-21T19:03:13.705Z,72.50
2019-05-21T19:05:44.701Z,72.70
2019-05-21T19:08:15.589Z,72.90
2019-05-21T19:10:46.344Z,73.10
2019-05-21T19:13:17.669Z,73.70
2019-05-21T19:15:48.400Z,73.50
2019-05-21T19:18:19.006Z,73.60
2019-05-21T19:20:50.490Z,73.80
2019-05-21T19:23:21.417Z,73.90
2019-05-21T19:25:52.323Z,74.20
2019-05-21T19:28:23.297Z,74.30
2019-05-21T19:30:54.391Z,74.70
2019-05-21T19:33:25.437Z,75.00
2019-05-21T19:35:55.945Z,75.40
2019-05-21T19:38:26.802Z,75.30
2019-05-21T19:40:57.670Z,75.30
2019-05-21T19:43:28.749Z,75.50
2019-05-21T19:45:59.813Z,75.20
2019-05-21T19:48:30.695Z,75.40
2019-05-21T19:51:01.486Z,75.80
2019-05-21T19:53:32.717Z,75.80
2019-05-21T19:56:03.654Z,75.90
2019-05-21T19:58:34.666Z,75.80
2019-05-21T20:01:05.655Z,76.10
2019-05-21T20:03:36.405Z,76.20
2019-05-21T20:06:07.705Z,76.40
2019-05-21T20:08:38.329Z,76.70
2019-05-21T20:11:09.338Z,77.00
2019-05-21T20:13:39.839Z,77.20
2019-05-21T20:16:11.546Z,78.00
2019-05-21T20:18:42.119Z,77.20
2019-05-21T20:21:14.874Z,77.20
2019-05-21T20:23:47.085Z,77.30
2019-05-21T20:26:19.014Z,77.40
2019-05-21T20:28:50.021Z,77.70
2019-05-21T20:31:22.735Z,77.90
2019-05-21T20:33:53.922Z,77.90
2019-05-21T20:36:25.086Z,77.80
2019-05-21T20:38:56.111Z,77.80
2019-05-21T20:41:27.161Z,79.20
2019-05-21T20:43:59.405Z,78.10
2019-05-21T20:46:31.205Z,78.50
2019-05-21T20:49:02.509Z,78.60
2019-05-21T20:51:34.683Z,78.50
2019-05-21T20:54:08.142Z,78.50
2019-05-21T20:56:45.698Z,78.70
2019-05-21T20:59:16.894Z,79.00
2019-05-21T21:01:47.832Z,78.90
2019-05-21T21:04:18.756Z,78.90
2019-05-21T21:06:50.309Z,79.00
2019-05-21T21:09:21.876Z,79.30
2019-05-21T21:11:52.676Z,79.30
2019-05-21T21:14:24.242Z,79.30
2019-05-21T21:16:56.136Z,79.50
2019-05-21T21:19:27.967Z,79.50
2019-05-21T21:21:58.766Z,79.70
2019-05-21T21:24:30.131Z,79.50
2019-05-21T21:27:00.808Z,79.70
2019-05-21T21:29:31.651Z,80.30
2019-05-21T21:32:02.875Z,79.70
2019-05-21T21:34:33.855Z,80.00
2019-05-21T21:37:05.716Z,79.80
2019-05-21T21:39:37.086Z,79.90
2019-05-21T21:42:09.428Z,79.80
2019-05-21T21:44:40.323Z,80.50
2019-05-21T21:47:11.038Z,80.30
2019-05-21T21:49:42.660Z,80.40
2019-05-21T21:52:15.140Z,81.10
2019-05-21T21:54:46.796Z,81.20
2019-05-21T21:57:17.865Z,81.40
2019-05-21T21:59:48.464Z,81.60
2019-05-21T22:02:28.518Z,81.90
2019-05-21T22:05:00.086Z,82.20
2019-05-21T22:07:31.800Z,82.40
2019-05-21T22:10:02.698Z,82.30
2019-05-21T22:12:34.550Z,82.50
2019-05-21T22:15:06.957Z,82.10
2019-05-21T22:17:37.880Z,82.20
2019-05-21T22:20:08.953Z,82.10
2019-05-21T22:22:39.635Z,82.30
2019-05-21T22:25:11.115Z,82.20
2019-05-21T22:27:42.229Z,82.30
2019-05-21T22:30:13.829Z,82.30
2019-05-21T22:32:44.567Z,82.20
2019-05-21T22:35:15.513Z,82.20
2019-05-21T22:37:45.996Z,82.40
2019-05-21T22:40:16.560Z,82.40
2019-05-21T22:42:47.080Z,82.90
2019-05-21T22:45:17.807Z,82.90
2019-05-21T22:47:48.703Z,83.30
2019-05-21T22:50:19.616Z,83.50
2019-05-21T22:52:50.355Z,83.70
2019-05-21T22:55:21.195Z,84.20
2019-05-21T22:57:52.123Z,84.60
2019-05-21T23:00:23.355Z,85.20
2019-05-21T23:02:54.231Z,86.10
2019-05-21T23:05:25.183Z,86.60
2019-05-21T23:07:56.420Z,87.00
2019-05-21T23:10:26.921Z,88.10
2019-05-21T23:12:57.924Z,88.30
2019-05-21T23:15:28.801Z,87.60
2019-05-21T23:18:15.985Z,87.30
2019-05-21T23:20:57.147Z,87.30
2019-05-21T23:23:31.326Z,86.80
2019-05-21T23:26:02.506Z,86.60
2019-05-21T23:28:33.756Z,86.60
2019-05-21T23:31:06.079Z,86.30
2019-05-21T23:33:37.469Z,85.90
2019-05-21T23:36:08.229Z,86.30
2019-05-21T23:38:40.846Z,86.60
2019-05-21T23:41:11.597Z,87.70
2019-05-21T23:43:42.204Z,87.50
2019-05-21T23:46:14.487Z,88.10
2019-05-21T23:48:45.119Z,87.70
2019-05-21T23:51:15.855Z,87.20
2019-05-21T23:53:47.249Z,87.30
2019-05-21T23:56:18.110Z,87.20
2019-05-21T23:58:49.331Z,88.10
